createdAt,value
2019-03-04T00:00:47.793Z,0.00
2019-03-04T00:01:47.673Z,0.00
2019-03-04T00:02:47.662Z,0.00
2019-03-04T00:03:47.612Z,0.00
2019-03-04T00:04:47.595Z,0.00
2019-03-04T00:05:47.558Z,0.00
2019-03-04T00:06:47.496Z,0.00
2019-03-04T00:07:47.485Z,0.00
2019-03-04T00:08:47.410Z,0.00
2019-03-04T00:09:47.376Z,0.00
2019-03-04T00:10:47.411Z,0.00
2019-03-04T00:11:47.294Z,0.00
2019-03-04T00:12:47.278Z,0.00
2019-03-04T00:13:47.247Z,0.00
2019-03-04T00:14:47.216Z,0.00
2019-03-04T00:15:47.189Z,0.00
2019-03-04T00:16:47.173Z,0.00
2019-03-04T00:17:47.060Z,0.00
2019-03-04T00:18:47.042Z,0.00
2019-03-04T00:19:47.049Z,0.00
2019-03-04T00:20:46.955Z,0.00
2019-03-04T00:21:46.957Z,0.00
2019-03-04T00:22:46.929Z,0.00
2019-03-04T00:23:46.884Z,0.00
2019-03-04T00:24:46.833Z,0.00
2019-03-04T00:25:46.837Z,0.00
2019-03-04T00:26:46.736Z,0.00
2019-03-04T00:27:46.747Z,0.00
2019-03-04T00:28:46.681Z,0.00
2019-03-04T00:29:46.690Z,0.00
2019-03-04T00:30:46.602Z,0.00
2019-03-04T00:31:46.558Z,0.00
2019-03-04T00:32:46.535Z,0.00
2019-03-04T00:33:46.603Z,0.00
2019-03-04T00:34:46.473Z,0.00
2019-03-04T00:35:46.471Z,0.00
2019-03-04T00:36:46.373Z,0.00
2019-03-04T00:37:46.354Z,0.00
2019-03-04T00:38:46.443Z,0.00
2019-03-04T00:39:46.330Z,0.00
2019-03-04T00:40:46.262Z,0.00
2019-03-04T00:41:46.182Z,0.00
2019-03-04T00:42:46.162Z,0.00
2019-03-04T00:43:46.114Z,0.00
2019-03-04T00:44:46.080Z,0.00
2019-03-04T00:45:46.039Z,0.00
2019-03-04T00:46:46.019Z,0.00
2019-03-04T00:47:46.065Z,0.00
2019-03-04T00:48:45.925Z,0.00
2019-03-04T00:49:45.898Z,0.00
2019-03-04T00:50:45.877Z,0.00
2019-03-04T00:51:45.838Z,0.00
2019-03-04T00:52:45.786Z,0.00
2019-03-04T00:53:45.755Z,0.00
2019-03-04T00:54:45.755Z,0.00
2019-03-04T00:55:45.698Z,0.00
2019-03-04T00:56:45.663Z,0.00
2019-03-04T00:57:45.636Z,0.00
2019-03-04T00:58:45.571Z,0.00
2019-03-04T00:59:45.520Z,0.00
2019-03-04T01:00:45.485Z,0.00
2019-03-04T01:01:45.492Z,0.00
2019-03-04T01:02:45.438Z,0.00
2019-03-04T01:03:45.430Z,0.00
2019-03-04T01:04:45.338Z,0.00
2019-03-04T01:05:45.315Z,0.00
2019-03-04T01:06:45.267Z,0.00
2019-03-04T01:07:45.256Z,0.00
2019-03-04T01:08:45.195Z,0.00
2019-03-04T01:09:45.142Z,0.00
2019-03-04T01:10:45.121Z,0.00
2019-03-04T01:11:45.085Z,0.00
2019-03-04T01:12:45.030Z,0.00
2019-03-04T01:13:45.053Z,0.00
2019-03-04T01:14:44.998Z,0.00
2019-03-04T01:15:44.965Z,0.00
2019-03-04T01:16:44.919Z,0.00
2019-03-04T01:17:44.862Z,0.00
2019-03-04T01:18:44.823Z,0.00
2019-03-04T01:19:44.790Z,0.00
2019-03-04T01:20:44.739Z,0.00
2019-03-04T01:21:44.725Z,0.00
2019-03-04T01:22:44.798Z,0.00
2019-03-04T01:23:44.640Z,0.00
2019-03-04T01:24:44.607Z,0.00
2019-03-04T01:25:44.583Z,0.00
2019-03-04T01:26:44.522Z,0.00
2019-03-04T01:27:44.519Z,0.00
2019-03-04T01:28:44.450Z,0.00
2019-03-04T01:29:44.436Z,0.00
2019-03-04T01:30:44.409Z,0.00
2019-03-04T01:31:44.345Z,0.00
2019-03-04T01:32:44.306Z,0.00
2019-03-04T01:33:44.273Z,0.00
2019-03-04T01:34:44.422Z,0.00
2019-03-04T01:35:44.195Z,0.00
2019-03-04T01:36:44.164Z,0.00
2019-03-04T01:37:44.110Z,0.00
2019-03-04T01:38:44.125Z,0.00
2019-03-04T01:39:44.212Z,0.00
2019-03-04T01:40:44.023Z,0.00
2019-03-04T01:41:43.952Z,0.00
2019-03-04T01:42:43.942Z,0.00
2019-03-04T01:43:50.420Z,0.00
2019-03-04T01:44:43.845Z,0.00
2019-03-04T01:45:43.874Z,0.00
2019-03-04T01:46:43.837Z,0.00
2019-03-04T01:47:43.834Z,0.00
2019-03-04T01:48:43.722Z,0.00
2019-03-04T01:49:43.657Z,0.00
2019-03-04T01:50:43.637Z,0.00
2019-03-04T01:51:43.614Z,0.00
2019-03-04T01:52:43.553Z,0.00
2019-03-04T01:53:46.446Z,0.00
2019-03-04T01:54:43.649Z,0.00
2019-03-04T01:55:43.438Z,0.00
2019-03-04T01:56:43.396Z,0.00
2019-03-04T01:57:43.373Z,0.00
2019-03-04T01:58:43.392Z,0.00
2019-03-04T01:59:43.315Z,0.00
2019-03-04T02:00:43.445Z,0.00
2019-03-04T02:01:43.247Z,0.00
2019-03-04T02:02:43.234Z,0.00
2019-03-04T02:03:43.162Z,0.00
2019-03-04T02:04:43.129Z,0.00
2019-03-04T02:05:43.061Z,0.00
2019-03-04T02:06:43.025Z,0.00
2019-03-04T02:07:42.992Z,0.00
2019-03-04T02:08:42.983Z,0.00
2019-03-04T02:09:42.920Z,0.00
2019-03-04T02:10:42.914Z,0.00
2019-03-04T02:11:42.937Z,0.00
2019-03-04T02:12:42.807Z,0.00
2019-03-04T02:13:42.805Z,0.00
2019-03-04T02:14:42.786Z,0.00
2019-03-04T02:15:42.747Z,0.00
2019-03-04T02:16:42.708Z,0.00
2019-03-04T02:17:42.610Z,0.00
2019-03-04T02:18:42.582Z,0.00
2019-03-04T02:19:42.577Z,0.00
2019-03-04T02:20:42.526Z,0.00
2019-03-04T02:21:42.604Z,0.00
2019-03-04T02:22:42.489Z,0.00
2019-03-04T02:23:42.397Z,0.00
2019-03-04T02:24:42.387Z,0.00
2019-03-04T02:25:42.411Z,0.00
2019-03-04T02:26:42.316Z,0.00
2019-03-04T02:27:42.249Z,0.00
2019-03-04T02:28:42.222Z,0.00
2019-03-04T02:29:42.194Z,0.00
2019-03-04T02:30:42.152Z,0.00
2019-03-04T02:31:42.142Z,0.00
2019-03-04T02:32:42.082Z,0.00
2019-03-04T02:33:42.119Z,0.00
2019-03-04T02:34:41.994Z,0.00
2019-03-04T02:35:41.977Z,0.00
2019-03-04T02:36:41.935Z,0.00
2019-03-04T02:37:41.918Z,0.00
2019-03-04T02:38:41.878Z,0.00
2019-03-04T02:39:41.803Z,0.00
2019-03-04T02:40:41.794Z,0.00
2019-03-04T02:41:41.774Z,0.00
2019-03-04T02:42:41.708Z,0.00
2019-03-04T02:43:41.676Z,0.00
2019-03-04T02:44:41.637Z,0.00
2019-03-04T02:45:41.586Z,0.00
2019-03-04T02:46:41.551Z,0.00
2019-03-04T02:47:41.547Z,0.00
2019-03-04T02:48:41.495Z,0.00
2019-03-04T02:49:41.448Z,0.00
2019-03-04T02:50:41.397Z,0.00
2019-03-04T02:51:41.379Z,0.00
2019-03-04T02:52:41.320Z,0.00
2019-03-04T02:53:41.289Z,0.00
2019-03-04T02:54:41.260Z,0.00
2019-03-04T02:55:41.241Z,0.00
2019-03-04T02:56:41.177Z,0.00
2019-03-04T02:57:41.125Z,0.00
2019-03-04T02:58:41.118Z,0.00
2019-03-04T02:59:41.054Z,0.00
2019-03-04T03:00:41.019Z,0.00
2019-03-04T03:01:41.069Z,0.00
2019-03-04T03:02:40.997Z,0.00
2019-03-04T03:03:40.934Z,0.00
2019-03-04T03:04:40.872Z,0.00
2019-03-04T03:05:40.865Z,0.00
2019-03-04T03:06:40.792Z,0.00
2019-03-04T03:07:40.884Z,0.00
2019-03-04T03:08:40.720Z,0.00
2019-03-04T03:09:40.710Z,0.00
2019-03-04T03:10:40.847Z,0.00
2019-03-04T03:11:40.618Z,0.00
2019-03-04T03:12:40.567Z,0.00
2019-03-04T03:13:40.545Z,0.00
2019-03-04T03:14:40.651Z,0.00
2019-03-04T03:15:40.452Z,0.00
2019-03-04T03:16:40.441Z,0.00
2019-03-04T03:17:40.378Z,0.00
2019-03-04T03:18:40.357Z,0.00
2019-03-04T03:19:40.314Z,0.00
2019-03-04T03:20:40.302Z,0.00
2019-03-04T03:21:40.299Z,0.00
2019-03-04T03:22:40.207Z,0.00
2019-03-04T03:23:40.139Z,0.00
2019-03-04T03:24:40.127Z,0.00
2019-03-04T03:25:40.119Z,0.00
2019-03-04T03:26:40.105Z,0.00
2019-03-04T03:27:40.009Z,0.00
2019-03-04T03:28:40.020Z,0.00
2019-03-04T03:29:39.931Z,0.00
2019-03-04T03:30:39.900Z,0.00
2019-03-04T03:31:39.882Z,0.00
2019-03-04T03:32:39.829Z,0.00
2019-03-04T03:33:39.793Z,0.00
2019-03-04T03:34:39.781Z,0.00
2019-03-04T03:35:39.778Z,0.00
2019-03-04T03:36:39.668Z,0.00
2019-03-04T03:37:39.624Z,0.00
2019-03-04T03:38:39.603Z,0.00
2019-03-04T03:39:39.571Z,0.00
2019-03-04T03:40:39.538Z,0.00
2019-03-04T03:41:39.498Z,0.00
2019-03-04T03:42:39.503Z,0.00
2019-03-04T03:43:39.455Z,0.00
2019-03-04T03:44:39.369Z,0.00
2019-03-04T03:45:39.322Z,0.00
2019-03-04T03:46:39.341Z,0.00
2019-03-04T03:47:39.297Z,0.00
2019-03-04T03:48:39.232Z,0.00
2019-03-04T03:49:39.185Z,0.00
2019-03-04T03:50:39.170Z,0.00
2019-03-04T03:51:39.117Z,0.00
2019-03-04T03:52:39.083Z,0.00
2019-03-04T03:53:39.077Z,0.00
2019-03-04T03:54:39.056Z,0.00
2019-03-04T03:55:38.975Z,0.00
2019-03-04T03:56:38.961Z,0.00
2019-03-04T03:57:38.889Z,0.00
2019-03-04T03:58:38.885Z,0.00
2019-03-04T03:59:38.829Z,0.00
2019-03-04T04:00:38.781Z,0.00
2019-03-04T04:01:38.748Z,0.00
2019-03-04T04:02:38.747Z,0.00
2019-03-04T04:03:38.725Z,0.00
2019-03-04T04:04:38.793Z,0.00
2019-03-04T04:05:38.595Z,0.00
2019-03-04T04:06:38.559Z,0.00
2019-03-04T04:07:38.513Z,0.00
2019-03-04T04:08:38.525Z,0.00
2019-03-04T04:09:38.454Z,0.00
2019-03-04T04:10:38.423Z,0.00
2019-03-04T04:11:38.401Z,0.00
2019-03-04T04:12:38.345Z,0.00
2019-03-04T04:13:38.318Z,0.00
2019-03-04T04:14:38.247Z,0.00
2019-03-04T04:15:38.336Z,0.00
2019-03-04T04:16:38.187Z,0.00
2019-03-04T04:17:38.151Z,0.00
2019-03-04T04:18:38.113Z,0.00
2019-03-04T04:19:38.087Z,0.00
2019-03-04T04:20:38.043Z,0.00
2019-03-04T04:21:38.014Z,0.00
2019-03-04T04:22:37.986Z,0.00
2019-03-04T04:23:37.922Z,0.00
2019-03-04T04:24:37.985Z,0.00
2019-03-04T04:25:37.850Z,0.00
2019-03-04T04:26:37.834Z,0.00
2019-03-04T04:27:37.779Z,0.00
2019-03-04T04:28:37.753Z,0.00
2019-03-04T04:29:37.788Z,0.00
2019-03-04T04:30:37.691Z,0.00
2019-03-04T04:31:37.635Z,0.00
2019-03-04T04:32:37.581Z,0.00
2019-03-04T04:33:37.574Z,0.00
2019-03-04T04:34:37.504Z,0.00
2019-03-04T04:35:37.490Z,0.00
2019-03-04T04:36:37.542Z,0.00
2019-03-04T04:37:37.393Z,0.00
2019-03-04T04:38:37.378Z,0.00
2019-03-04T04:39:37.363Z,0.00
2019-03-04T04:40:37.291Z,0.00
2019-03-04T04:41:37.459Z,0.00
2019-03-04T04:42:37.214Z,0.00
2019-03-04T04:43:37.218Z,0.00
2019-03-04T04:44:37.157Z,0.00
2019-03-04T04:45:37.109Z,0.00
2019-03-04T04:46:37.077Z,0.00
2019-03-04T04:47:37.052Z,0.00
2019-03-04T04:48:37.005Z,0.00
2019-03-04T04:49:36.960Z,0.00
2019-03-04T04:50:36.917Z,0.00
2019-03-04T04:51:36.902Z,0.00
2019-03-04T04:52:36.870Z,0.00
2019-03-04T04:53:36.844Z,0.00
2019-03-04T04:54:36.903Z,0.00
2019-03-04T04:55:36.754Z,0.00
2019-03-04T04:56:36.708Z,0.00
2019-03-04T04:57:36.683Z,0.00
2019-03-04T04:58:36.634Z,0.00
2019-03-04T04:59:36.634Z,0.00
2019-03-04T05:00:36.613Z,0.00
2019-03-04T05:01:36.521Z,0.00
2019-03-04T05:02:36.494Z,0.00
2019-03-04T05:03:36.523Z,0.00
2019-03-04T05:04:36.513Z,0.00
2019-03-04T05:05:36.363Z,0.00
2019-03-04T05:06:36.363Z,0.00
2019-03-04T05:07:36.322Z,0.00
2019-03-04T05:08:36.263Z,0.00
2019-03-04T05:09:36.291Z,0.00
2019-03-04T05:10:36.206Z,0.00
2019-03-04T05:11:36.300Z,0.00
2019-03-04T05:12:36.232Z,0.00
2019-03-04T05:13:36.078Z,0.00
2019-03-04T05:14:36.028Z,0.00
2019-03-04T05:15:36.264Z,0.00
2019-03-04T05:16:35.976Z,0.00
2019-03-04T05:17:35.934Z,0.00
2019-03-04T05:18:35.888Z,0.00
2019-03-04T05:19:35.862Z,0.00
2019-03-04T05:20:35.815Z,0.00
2019-03-04T05:21:35.805Z,0.00
2019-03-04T05:22:35.766Z,0.00
2019-03-04T05:23:35.704Z,0.00
2019-03-04T05:24:35.668Z,0.00
2019-03-04T05:25:35.634Z,0.00
2019-03-04T05:26:35.603Z,0.00
2019-03-04T05:27:35.558Z,0.00
2019-03-04T05:28:35.526Z,0.00
2019-03-04T05:29:35.499Z,0.00
2019-03-04T05:30:35.455Z,0.00
2019-03-04T05:31:35.440Z,0.00
2019-03-04T05:32:35.378Z,0.00
2019-03-04T05:33:35.340Z,0.00
2019-03-04T05:34:35.317Z,0.00
2019-03-04T05:35:35.274Z,0.00
2019-03-04T05:36:35.233Z,0.00
2019-03-04T05:37:35.227Z,0.00
2019-03-04T05:38:35.174Z,0.00
2019-03-04T05:39:35.114Z,0.00
2019-03-04T05:40:35.083Z,0.00
2019-03-04T05:41:35.055Z,0.00
2019-03-04T05:42:35.083Z,0.00
2019-03-04T05:43:34.996Z,0.00
2019-03-04T05:44:34.941Z,0.00
2019-03-04T05:45:34.922Z,0.00
2019-03-04T05:46:34.896Z,0.00
2019-03-04T05:47:34.846Z,0.00
2019-03-04T05:48:34.807Z,0.00
2019-03-04T05:49:34.757Z,0.00
2019-03-04T05:50:34.727Z,0.00
2019-03-04T05:51:34.697Z,5.63
2019-03-04T05:52:34.637Z,5.63
2019-03-04T05:53:34.603Z,5.63
2019-03-04T05:54:34.573Z,5.63
2019-03-04T05:55:34.609Z,5.63
2019-03-04T05:56:34.505Z,5.63
2019-03-04T05:57:34.486Z,5.63
2019-03-04T05:58:34.439Z,5.63
2019-03-04T05:59:34.458Z,11.25
2019-03-04T06:00:34.349Z,11.25
2019-03-04T06:01:34.332Z,16.88
2019-03-04T06:02:34.294Z,28.13
2019-03-04T06:03:34.279Z,33.75
2019-03-04T06:04:34.230Z,45.00
2019-03-04T06:05:34.176Z,56.25
2019-03-04T06:06:34.148Z,61.88
2019-03-04T06:07:34.329Z,73.13
2019-03-04T06:08:34.133Z,78.75
2019-03-04T06:09:34.046Z,78.75
2019-03-04T06:10:34.008Z,67.50
2019-03-04T06:11:33.964Z,56.25
2019-03-04T06:12:34.098Z,56.25
2019-03-04T06:13:33.923Z,61.88
2019-03-04T06:14:33.860Z,67.50
2019-03-04T06:15:33.882Z,84.38
2019-03-04T06:16:33.826Z,95.63
2019-03-04T06:17:33.790Z,106.88
2019-03-04T06:18:33.799Z,106.88
2019-03-04T06:19:33.828Z,106.88
2019-03-04T06:20:33.657Z,106.88
2019-03-04T06:21:33.625Z,106.88
2019-03-04T06:22:33.553Z,112.50
2019-03-04T06:23:33.656Z,112.50
2019-03-04T06:24:33.513Z,123.75
2019-03-04T06:25:33.523Z,129.38
2019-03-04T06:26:33.507Z,140.63
2019-03-04T06:27:33.394Z,151.88
2019-03-04T06:28:33.365Z,168.75
2019-03-04T06:29:33.369Z,174.38
2019-03-04T06:30:33.279Z,180.00
2019-03-04T06:31:33.243Z,185.63
2019-03-04T06:32:33.215Z,191.25
2019-03-04T06:33:33.168Z,191.25
2019-03-04T06:34:33.154Z,191.25
2019-03-04T06:35:33.108Z,191.25
2019-03-04T06:36:33.062Z,185.63
2019-03-04T06:37:33.037Z,191.25
2019-03-04T06:38:32.978Z,185.63
2019-03-04T06:39:32.949Z,180.00
2019-03-04T06:40:32.990Z,180.00
2019-03-04T06:41:32.891Z,180.00
2019-03-04T06:42:32.850Z,185.63
2019-03-04T06:43:32.847Z,196.88
2019-03-04T06:44:32.794Z,208.13
2019-03-04T06:45:32.736Z,219.38
2019-03-04T06:46:32.717Z,236.25
2019-03-04T06:47:32.702Z,253.13
2019-03-04T06:48:32.644Z,270.00
2019-03-04T06:49:32.600Z,275.63
2019-03-04T06:50:32.563Z,281.25
2019-03-04T06:51:32.596Z,281.25
2019-03-04T06:52:32.527Z,275.63
2019-03-04T06:53:32.561Z,264.38
2019-03-04T06:54:32.441Z,247.50
2019-03-04T06:55:32.380Z,225.00
2019-03-04T06:56:32.359Z,213.75
2019-03-04T06:57:32.334Z,202.50
2019-03-04T06:58:32.288Z,191.25
2019-03-04T06:59:32.276Z,196.88
2019-03-04T07:00:32.226Z,208.13
2019-03-04T07:01:32.181Z,219.38
2019-03-04T07:02:32.166Z,230.63
2019-03-04T07:03:32.116Z,236.25
2019-03-04T07:04:32.058Z,241.88
2019-03-04T07:05:32.029Z,247.50
2019-03-04T07:06:32.006Z,247.50
2019-03-04T07:07:31.959Z,253.13
2019-03-04T07:08:32.004Z,253.13
2019-03-04T07:09:31.903Z,264.38
2019-03-04T07:10:31.861Z,270.00
2019-03-04T07:11:31.818Z,281.25
2019-03-04T07:12:31.795Z,303.75
2019-03-04T07:13:31.751Z,320.63
2019-03-04T07:14:32.427Z,326.25
2019-03-04T07:15:31.680Z,320.63
2019-03-04T07:16:32.210Z,326.25
2019-03-04T07:17:31.608Z,315.00
2019-03-04T07:18:31.644Z,292.50
2019-03-04T07:19:31.539Z,264.38
2019-03-04T07:20:31.518Z,236.25
2019-03-04T07:21:31.467Z,219.38
2019-03-04T07:22:31.453Z,213.75
2019-03-04T07:23:31.382Z,219.38
2019-03-04T07:24:31.367Z,236.25
2019-03-04T07:25:31.352Z,253.13
2019-03-04T07:26:31.290Z,275.63
2019-03-04T07:27:31.251Z,286.88
2019-03-04T07:28:31.213Z,298.13
2019-03-04T07:29:31.222Z,303.75
2019-03-04T07:30:31.169Z,309.38
2019-03-04T07:31:31.107Z,320.63
2019-03-04T07:32:31.137Z,326.25
2019-03-04T07:33:31.157Z,348.75
2019-03-04T07:34:31.054Z,376.88
2019-03-04T07:35:31.071Z,382.50
2019-03-04T07:36:31.072Z,382.50
2019-03-04T07:37:30.894Z,433.13
2019-03-04T07:38:30.876Z,433.13
2019-03-04T07:39:30.853Z,528.75
2019-03-04T07:40:30.807Z,832.50
2019-03-04T07:41:30.763Z,826.88
2019-03-04T07:42:31.359Z,855.00
2019-03-04T07:43:30.680Z,658.13
2019-03-04T07:44:30.660Z,742.50
2019-03-04T07:45:30.705Z,652.50
2019-03-04T07:46:30.616Z,748.13
2019-03-04T07:47:30.547Z,793.13
2019-03-04T07:48:30.517Z,939.38
2019-03-04T07:49:30.504Z,950.63
2019-03-04T07:50:30.465Z,1248.75
2019-03-04T07:51:30.590Z,1147.50
2019-03-04T07:52:30.665Z,933.75
2019-03-04T07:53:30.328Z,877.50
2019-03-04T07:54:30.342Z,765.00
2019-03-04T07:55:30.401Z,939.38
2019-03-04T07:56:30.316Z,1220.63
2019-03-04T07:57:30.303Z,1395.00
2019-03-04T07:58:30.197Z,1417.50
2019-03-04T07:59:30.186Z,1254.38
2019-03-04T08:00:30.118Z,1445.63
2019-03-04T08:01:30.078Z,1260.00
2019-03-04T08:02:30.067Z,1141.88
2019-03-04T08:03:30.138Z,1046.25
2019-03-04T08:04:30.027Z,1170.00
2019-03-04T08:05:29.985Z,1338.75
2019-03-04T08:06:29.984Z,1501.88
2019-03-04T08:07:29.907Z,1434.38
2019-03-04T08:08:29.904Z,1108.13
2019-03-04T08:09:29.888Z,1108.13
2019-03-04T08:10:29.842Z,1575.00
2019-03-04T08:11:29.807Z,1372.50
2019-03-04T08:12:29.786Z,1411.88
2019-03-04T08:13:29.746Z,1451.25
2019-03-04T08:14:29.725Z,1231.88
2019-03-04T08:15:29.723Z,1226.25
2019-03-04T08:16:29.849Z,1243.13
2019-03-04T08:17:29.662Z,1226.25
2019-03-04T08:18:29.714Z,1282.50
2019-03-04T08:19:29.711Z,1147.50
2019-03-04T08:20:29.559Z,1147.50
2019-03-04T08:21:29.530Z,1209.38
2019-03-04T08:22:29.538Z,1181.25
2019-03-04T08:23:29.491Z,1006.88
2019-03-04T08:24:29.457Z,905.63
2019-03-04T08:25:29.624Z,1018.13
2019-03-04T08:26:29.450Z,860.63
2019-03-04T08:27:29.475Z,787.50
2019-03-04T08:28:29.487Z,776.25
2019-03-04T08:29:29.346Z,832.50
2019-03-04T08:30:29.301Z,714.38
2019-03-04T08:31:29.282Z,624.38
2019-03-04T08:32:29.253Z,590.63
2019-03-04T08:33:29.328Z,540.00
2019-03-04T08:34:31.320Z,444.38
2019-03-04T08:35:29.311Z,421.88
2019-03-04T08:36:29.126Z,315.00
2019-03-04T08:37:29.095Z,253.13
2019-03-04T08:38:29.095Z,264.38
2019-03-04T08:39:29.099Z,298.13
2019-03-04T08:40:29.015Z,354.38
2019-03-04T08:41:28.982Z,303.75
2019-03-04T08:42:28.945Z,247.50
2019-03-04T08:43:28.943Z,219.38
2019-03-04T08:44:31.060Z,208.13
2019-03-04T08:45:28.866Z,208.13
2019-03-04T08:46:28.841Z,253.13
2019-03-04T08:47:28.810Z,365.63
2019-03-04T08:48:28.763Z,466.88
2019-03-04T08:49:28.806Z,511.88
2019-03-04T08:50:28.707Z,573.75
2019-03-04T08:51:28.786Z,585.00
2019-03-04T08:52:28.823Z,652.50
2019-03-04T08:53:30.871Z,1597.50
2019-03-04T08:54:28.593Z,658.13
2019-03-04T08:55:28.550Z,585.00
2019-03-04T08:56:28.521Z,680.63
2019-03-04T08:57:28.491Z,877.50
2019-03-04T08:58:28.451Z,894.38
2019-03-04T08:59:28.588Z,714.38
2019-03-04T09:00:28.396Z,511.88
2019-03-04T09:01:28.353Z,405.00
2019-03-04T09:02:28.383Z,438.75
2019-03-04T09:03:28.472Z,472.50
2019-03-04T09:04:28.292Z,483.75
2019-03-04T09:05:28.231Z,489.38
2019-03-04T09:06:28.189Z,511.88
2019-03-04T09:07:28.329Z,556.88
2019-03-04T09:08:28.129Z,556.88
2019-03-04T09:09:28.097Z,455.63
2019-03-04T09:10:28.043Z,371.25
2019-03-04T09:11:28.052Z,315.00
2019-03-04T09:12:28.153Z,360.00
2019-03-04T09:13:27.969Z,410.63
2019-03-04T09:14:27.931Z,472.50
2019-03-04T09:15:28.474Z,540.00
2019-03-04T09:16:27.862Z,703.13
2019-03-04T09:17:28.026Z,950.63
2019-03-04T09:18:27.817Z,888.75
2019-03-04T09:19:27.767Z,641.25
2019-03-04T09:20:27.737Z,641.25
2019-03-04T09:21:27.704Z,776.25
2019-03-04T09:22:27.661Z,866.25
2019-03-04T09:23:27.645Z,1012.50
2019-03-04T09:24:27.614Z,1006.88
2019-03-04T09:25:30.657Z,770.63
2019-03-04T09:26:27.559Z,748.13
2019-03-04T09:27:27.493Z,838.13
2019-03-04T09:28:27.458Z,849.38
2019-03-04T09:29:27.436Z,798.75
2019-03-04T09:30:27.402Z,759.38
2019-03-04T09:31:27.398Z,770.63
2019-03-04T09:32:27.344Z,855.00
2019-03-04T09:33:27.302Z,933.75
2019-03-04T09:34:27.270Z,956.25
2019-03-04T09:35:27.227Z,911.25
2019-03-04T09:36:27.263Z,894.38
2019-03-04T09:37:27.231Z,1057.50
2019-03-04T09:38:27.147Z,1001.25
2019-03-04T09:39:27.103Z,1063.13
2019-03-04T09:40:27.065Z,1141.88
2019-03-04T09:41:27.022Z,1181.25
2019-03-04T09:42:26.991Z,1181.25
2019-03-04T09:43:27.032Z,961.88
2019-03-04T09:44:26.937Z,888.75
2019-03-04T09:45:26.930Z,995.63
2019-03-04T09:46:26.882Z,916.88
2019-03-04T09:47:26.832Z,1226.25
2019-03-04T09:48:26.817Z,2430.00
2019-03-04T09:49:26.760Z,1816.88
2019-03-04T09:50:26.730Z,1243.13
2019-03-04T09:51:26.709Z,1288.13
2019-03-04T09:52:26.674Z,2581.88
2019-03-04T09:53:26.678Z,2683.13
2019-03-04T09:54:26.613Z,1839.38
2019-03-04T09:55:26.582Z,1400.63
2019-03-04T09:56:26.564Z,1231.88
2019-03-04T09:57:26.524Z,2536.88
2019-03-04T09:58:26.502Z,2525.63
2019-03-04T09:59:26.464Z,2773.13
2019-03-04T10:00:26.445Z,2520.00
2019-03-04T10:01:26.401Z,2835.00
2019-03-04T10:02:26.380Z,2418.75
2019-03-04T10:03:26.357Z,2531.25
2019-03-04T10:04:26.341Z,2722.50
2019-03-04T10:05:26.285Z,2778.75
2019-03-04T10:06:26.270Z,2638.13
2019-03-04T10:07:26.235Z,2424.38
2019-03-04T10:08:32.855Z,2784.38
2019-03-04T10:09:26.181Z,2458.13
2019-03-04T10:10:26.262Z,1305.00
2019-03-04T10:11:26.118Z,3088.13
2019-03-04T10:12:26.092Z,2041.88
2019-03-04T10:13:26.078Z,1130.63
2019-03-04T10:14:26.062Z,1198.13
2019-03-04T10:15:26.045Z,1282.50
2019-03-04T10:16:25.987Z,1350.00
2019-03-04T10:17:26.011Z,1732.50
2019-03-04T10:18:25.953Z,1366.88
2019-03-04T10:19:25.917Z,1411.88
2019-03-04T10:20:25.897Z,1749.38
2019-03-04T10:21:25.863Z,2446.88
2019-03-04T10:22:25.869Z,1400.63
2019-03-04T10:23:25.897Z,1366.88
2019-03-04T10:24:25.781Z,1440.00
2019-03-04T10:25:25.763Z,1383.75
2019-03-04T10:26:25.736Z,1535.63
2019-03-04T10:27:25.712Z,1715.63
2019-03-04T10:28:25.674Z,2227.50
2019-03-04T10:29:25.675Z,2182.50
2019-03-04T10:30:25.614Z,1850.63
2019-03-04T10:31:25.622Z,1726.88
2019-03-04T10:32:25.622Z,1535.63
2019-03-04T10:33:25.527Z,1614.38
2019-03-04T10:34:25.513Z,1670.63
2019-03-04T10:35:25.474Z,1659.38
2019-03-04T10:36:25.444Z,1822.50
2019-03-04T10:37:25.424Z,3858.75
2019-03-04T10:38:25.393Z,3178.13
2019-03-04T10:39:25.364Z,3920.63
2019-03-04T10:40:25.420Z,3695.63
2019-03-04T10:41:25.303Z,3189.38
2019-03-04T10:42:25.285Z,2908.13
2019-03-04T10:43:25.282Z,3150.00
2019-03-04T10:44:25.241Z,3335.63
2019-03-04T10:45:25.186Z,2908.13
2019-03-04T10:46:25.170Z,2863.13
2019-03-04T10:47:25.141Z,2835.00
2019-03-04T10:48:25.124Z,1063.13
2019-03-04T10:49:25.111Z,3217.50
2019-03-04T10:50:25.062Z,3729.38
2019-03-04T10:51:25.034Z,2272.50
2019-03-04T10:52:25.029Z,3178.13
2019-03-04T10:53:24.985Z,2722.50
2019-03-04T10:54:24.967Z,3740.63
2019-03-04T10:55:24.946Z,3622.50
2019-03-04T10:56:24.910Z,2070.00
2019-03-04T10:57:24.875Z,1620.00
2019-03-04T10:58:24.858Z,1816.88
2019-03-04T10:59:24.836Z,3701.25
2019-03-04T11:00:24.803Z,1631.25
2019-03-04T11:01:30.469Z,1980.00
2019-03-04T11:02:24.802Z,1209.38
2019-03-04T11:03:24.726Z,1231.88
2019-03-04T11:04:24.788Z,1344.38
2019-03-04T11:05:24.693Z,1125.00
2019-03-04T11:06:24.655Z,905.63
2019-03-04T11:07:24.632Z,860.63
2019-03-04T11:08:24.617Z,916.88
2019-03-04T11:09:24.566Z,1051.88
2019-03-04T11:10:24.574Z,1203.75
2019-03-04T11:11:29.930Z,1957.50
2019-03-04T11:12:24.508Z,1276.88
2019-03-04T11:13:24.564Z,978.75
2019-03-04T11:14:24.460Z,804.38
2019-03-04T11:15:24.416Z,714.38
2019-03-04T11:16:24.431Z,950.63
2019-03-04T11:17:24.346Z,697.50
2019-03-04T11:18:24.341Z,703.13
2019-03-04T11:19:24.307Z,736.88
2019-03-04T11:20:24.303Z,691.88
2019-03-04T11:21:24.289Z,641.25
2019-03-04T11:22:24.215Z,900.00
2019-03-04T11:23:24.180Z,1181.25
2019-03-04T11:24:24.150Z,1552.50
2019-03-04T11:25:24.133Z,1918.13
2019-03-04T11:26:24.101Z,1996.88
2019-03-04T11:27:24.058Z,1783.13
2019-03-04T11:28:24.034Z,1777.50
2019-03-04T11:29:24.000Z,2109.38
2019-03-04T11:30:24.003Z,2351.25
2019-03-04T11:31:23.937Z,2441.25
2019-03-04T11:32:23.894Z,2846.25
2019-03-04T11:33:23.864Z,2683.13
2019-03-04T11:34:23.851Z,2761.88
2019-03-04T11:35:23.823Z,1901.25
2019-03-04T11:36:23.991Z,1693.13
2019-03-04T11:37:23.762Z,3521.25
2019-03-04T11:38:23.755Z,3060.00
2019-03-04T11:39:23.886Z,2559.38
2019-03-04T11:40:23.766Z,2981.25
2019-03-04T11:41:23.652Z,3301.88
2019-03-04T11:42:23.591Z,1445.63
2019-03-04T11:43:23.607Z,1282.50
2019-03-04T11:44:23.607Z,1726.88
2019-03-04T11:45:23.515Z,1541.25
2019-03-04T11:46:23.502Z,1350.00
2019-03-04T11:47:23.474Z,1316.25
2019-03-04T11:48:23.443Z,1305.00
2019-03-04T11:49:23.392Z,1243.13
2019-03-04T11:50:23.396Z,1170.00
2019-03-04T11:51:23.338Z,1119.38
2019-03-04T11:52:23.324Z,1203.75
2019-03-04T11:53:23.260Z,1248.75
2019-03-04T11:54:23.240Z,1209.38
2019-03-04T11:55:23.225Z,1170.00
2019-03-04T11:56:23.179Z,1215.00
2019-03-04T11:57:23.150Z,1186.88
2019-03-04T11:58:23.108Z,1153.13
2019-03-04T11:59:23.108Z,1186.88
2019-03-04T12:00:23.065Z,1209.38
2019-03-04T12:01:23.028Z,1231.88
2019-03-04T12:02:23.015Z,1260.00
2019-03-04T12:03:22.970Z,1260.00
2019-03-04T12:04:22.920Z,1243.13
2019-03-04T12:05:22.927Z,1237.50
2019-03-04T12:06:22.888Z,1243.13
2019-03-04T12:07:22.847Z,1192.50
2019-03-04T12:08:22.945Z,1175.63
2019-03-04T12:09:22.775Z,1113.75
2019-03-04T12:10:22.775Z,1035.00
2019-03-04T12:11:22.731Z,978.75
2019-03-04T12:12:22.678Z,888.75
2019-03-04T12:13:22.650Z,883.13
2019-03-04T12:14:22.634Z,900.00
2019-03-04T12:15:22.596Z,916.88
2019-03-04T12:16:22.545Z,967.50
2019-03-04T12:17:22.505Z,984.38
2019-03-04T12:18:22.495Z,1012.50
2019-03-04T12:19:22.452Z,1040.63
2019-03-04T12:20:22.429Z,1091.25
2019-03-04T12:21:22.406Z,1063.13
2019-03-04T12:22:22.382Z,1018.13
2019-03-04T12:23:22.323Z,956.25
2019-03-04T12:24:22.287Z,883.13
2019-03-04T12:25:22.248Z,787.50
2019-03-04T12:26:22.210Z,675.00
2019-03-04T12:27:22.232Z,663.75
2019-03-04T12:28:22.149Z,720.00
2019-03-04T12:29:22.130Z,770.63
2019-03-04T12:30:22.095Z,832.50
2019-03-04T12:31:22.056Z,860.63
2019-03-04T12:32:22.041Z,832.50
2019-03-04T12:33:22.002Z,798.75
2019-03-04T12:34:24.848Z,945.00
2019-03-04T12:35:21.910Z,1006.88
2019-03-04T12:36:21.896Z,967.50
2019-03-04T12:37:21.919Z,995.63
2019-03-04T12:38:21.813Z,978.75
2019-03-04T12:39:21.817Z,928.13
2019-03-04T12:40:21.801Z,984.38
2019-03-04T12:41:21.747Z,1091.25
2019-03-04T12:42:21.691Z,1119.38
2019-03-04T12:43:21.651Z,1125.00
2019-03-04T12:44:21.644Z,1136.25
2019-03-04T12:45:21.591Z,1125.00